Map

Track Data

SID SEASON NUMBER BASIN SUBBASIN NAME ISO_TIME NATURE LAT LON WMO_WIND WMO_PRES WMO_AGENCY TRACK_TYPE DIST2LAND LANDFALL IFLAG USA_AGENCY USA_ATCF_ID USA_LAT USA_LON USA_RECORD USA_STATUS USA_WIND USA_PRES USA_SSHS USA_R34_NE USA_R34_SE USA_R34_SW USA_R34_NW USA_R50_NE USA_R50_SE USA_R50_SW USA_R50_NW USA_R64_NE USA_R64_SE USA_R64_SW USA_R64_NW USA_POCI USA_ROCI USA_RMW USA_EYE TOKYO_LAT TOKYO_LON TOKYO_GRADE TOKYO_WIND TOKYO_PRES TOKYO_R50_DIR TOKYO_R50_LONG TOKYO_R50_SHORT TOKYO_R30_DIR TOKYO_R30_LONG TOKYO_R30_SHORT TOKYO_LAND CMA_LAT CMA_LON CMA_CAT CMA_WIND CMA_PRES HKO_LAT HKO_LON HKO_CAT HKO_WIND HKO_PRES NEWDELHI_LAT NEWDELHI_LON NEWDELHI_GRADE NEWDELHI_WIND NEWDELHI_PRES NEWDELHI_CI NEWDELHI_DP NEWDELHI_POCI REUNION_LAT REUNION_LON REUNION_TYPE REUNION_WIND REUNION_PRES REUNION_TNUM REUNION_CI REUNION_RMW REUNION_R34_NE REUNION_R34_SE REUNION_R34_SW REUNION_R34_NW REUNION_R50_NE REUNION_R50_SE REUNION_R50_SW REUNION_R50_NW REUNION_R64_NE REUNION_R64_SE REUNION_R64_SW REUNION_R64_NW BOM_LAT BOM_LON BOM_TYPE BOM_WIND BOM_PRES BOM_TNUM BOM_CI BOM_RMW BOM_R34_NE BOM_R34_SE BOM_R34_SW BOM_R34_NW BOM_R50_NE BOM_R50_SE BOM_R50_SW BOM_R50_NW BOM_R64_NE BOM_R64_SE BOM_R64_SW BOM_R64_NW BOM_ROCI BOM_POCI BOM_EYE BOM_POS_METHOD BOM_PRES_METHOD NADI_LAT NADI_LON NADI_CAT NADI_WIND NADI_PRES WELLINGTON_LAT WELLINGTON_LON WELLINGTON_WIND WELLINGTON_PRES DS824_LAT DS824_LON DS824_STAGE DS824_WIND DS824_PRES TD9636_LAT TD9636_LON TD9636_STAGE TD9636_WIND TD9636_PRES TD9635_LAT TD9635_LON TD9635_WIND TD9635_PRES TD9635_ROCI NEUMANN_LAT NEUMANN_LON NEUMANN_CLASS NEUMANN_WIND NEUMANN_PRES MLC_LAT MLC_LON MLC_CLASS MLC_WIND MLC_PRES USA_GUST BOM_GUST BOM_GUST_PER REUNION_GUST REUNION_GUST_PER USA_SEAHGT USA_SEARAD_NE USA_SEARAD_SE USA_SEARAD_SW USA_SEARAD_NW STORM_SPEED STORM_DIR
1967263N13341 1967 105 NA NA NOT_NAMED 1967-09-19 12:00:00 TS 13.0000 -19.0000 25 hurdat_atl main 240 240 O_____________ hurdat_atl AL151967 13.0000 -19.0000 TD 25 -1 10 288
1967263N13341 1967 105 NA NA NOT_NAMED 1967-09-19 15:00:00 TS 13.1501 -19.4824 main 273 273 P_____________ AL151967 13.1501 -19.4824 TD 25 -1 10 287
1967263N13341 1967 105 NA NA NOT_NAMED 1967-09-19 18:00:00 TS 13.3000 -20.0000 25 hurdat_atl main 312 312 O_____________ hurdat_atl AL151967 13.3000 -20.0000 TD 25 -1 11 286
1967263N13341 1967 105 NA NA NOT_NAMED 1967-09-19 21:00:00 TS 13.4499 -20.5776 main 364 360 P_____________ AL151967 13.4499 -20.5776 TD 25 -1 12 284
1967263N13341 1967 105 NA NA NOT_NAMED 1967-09-20 00:00:00 TS 13.6000 -21.2000 25 hurdat_atl main 417 417 O_____________ hurdat_atl AL151967 13.6000 -21.2000 TD 25 -1 13 284
1967263N13341 1967 105 NA NA NOT_NAMED 1967-09-20 03:00:00 TS 13.7499 -21.8426 main 477 477 P_____________ AL151967 13.7499 -21.8426 TD 25 -1 13 283
1967263N13341 1967 105 NA NA NOT_NAMED 1967-09-20 06:00:00 TS 13.9000 -22.5000 25 hurdat_atl main 546 546 O_____________ hurdat_atl AL151967 13.9000 -22.5000 TD 25 -1 13 284
1967263N13341 1967 105 NA NA NOT_NAMED 1967-09-20 09:00:00 TS 14.0573 -23.1500 main 617 617 P_____________ AL151967 14.0573 -23.1500 TD 25 -1 13 283
1967263N13341 1967 105 NA NA NOT_NAMED 1967-09-20 12:00:00 TS 14.2000 -23.8000 25 hurdat_atl main 680 680 O_____________ hurdat_atl AL151967 14.2000 -23.8000 TD 25 -1 13 281
1967263N13341 1967 105 NA NA NOT_NAMED 1967-09-20 15:00:00 TS 14.3072 -24.4352 main 744 744 P_____________ AL151967 14.3072 -24.4352 TD 25 -1 13 279
1967263N13341 1967 105 NA NA NOT_NAMED 1967-09-20 18:00:00 TS 14.4000 -25.1000 25 hurdat_atl main 819 819 O_____________ hurdat_atl AL151967 14.4000 -25.1000 TD 25 -1 14 278
1967263N13341 1967 105 NA NA NOT_NAMED 1967-09-20 21:00:00 TS 14.4998 -25.8276 main 893 893 P_____________ AL151967 14.4998 -25.8276 TD 25 -1 15 278
1967263N13341 1967 105 NA NA NOT_NAMED 1967-09-21 00:00:00 TS 14.6000 -26.6000 25 hurdat_atl main 979 979 O_____________ hurdat_atl AL151967 14.6000 -26.6000 TD 25 -1 15 277
1967263N13341 1967 105 NA NA NOT_NAMED 1967-09-21 03:00:00 TS 14.6999 -27.4001 main 1065 1065 P_____________ AL151967 14.6999 -27.4001 TD 25 -1 16 277
1967263N13341 1967 105 NA NA NOT_NAMED 1967-09-21 06:00:00 TS 14.8000 -28.2000 25 hurdat_atl main 1151 1151 O_____________ hurdat_atl AL151967 14.8000 -28.2000 TD 25 -1 15 278
1967263N13341 1967 105 NA NA NOT_NAMED 1967-09-21 09:00:00 TS 14.9072 -28.9575 main 1236 1236 P_____________ AL151967 14.9072 -28.9575 TD 25 -1 15 278
1967263N13341 1967 105 NA NA NOT_NAMED 1967-09-21 12:00:00 TS 15.0000 -29.7000 25 hurdat_atl main 1312 1312 O_____________ hurdat_atl AL151967 15.0000 -29.7000 TD 25 -1 15 276
1967263N13341 1967 105 NA NA NOT_NAMED 1967-09-21 15:00:00 TS 15.0498 -30.4502 main 1398 1398 P_____________ AL151967 15.0498 -30.4502 TD 25 -1 15 274
1967263N13341 1967 105 NA NA NOT_NAMED 1967-09-21 18:00:00 TS 15.1000 -31.2000 25 hurdat_atl main 1473 1473 O_____________ hurdat_atl AL151967 15.1000 -31.2000 TD 25 -1 15 276
1967263N13341 1967 105 NA NA NOT_NAMED 1967-09-21 21:00:00 TS 15.1997 -31.9424 main 1548 1548 P_____________ AL151967 15.1997 -31.9424 TD 25 -1 15 278
1967263N13341 1967 105 NA NA NOT_NAMED 1967-09-22 00:00:00 TS 15.3000 -32.7000 25 hurdat_atl main 1634 1634 O_____________ hurdat_atl AL151967 15.3000 -32.7000 TD 25 -1 15 276
1967263N13341 1967 105 NA NA NOT_NAMED 1967-09-22 03:00:00 TS 15.3499 -33.5002 main 1720 1720 P_____________ AL151967 15.3499 -33.5002 TD 25 -1 15 274
1967263N13341 1967 105 NA NA NOT_NAMED 1967-09-22 06:00:00 TS 15.4000 -34.3000 25 hurdat_atl main 1806 1806 O_____________ hurdat_atl AL151967 15.4000 -34.3000 TD 25 -1 15 276
1967263N13341 1967 105 NA NA NOT_NAMED 1967-09-22 09:00:00 TS 15.4998 -35.0724 main 1891 1891 P_____________ AL151967 15.4998 -35.0724 TD 25 -1 15 278
1967263N13341 1967 105 NA NA NOT_NAMED 1967-09-22 12:00:00 TS 15.6000 -35.8000 25 hurdat_atl main 1966 1966 O_____________ hurdat_atl AL151967 15.6000 -35.8000 TD 25 -1 14 277
1967263N13341 1967 105 NA NA NOT_NAMED 1967-09-22 15:00:00 TS 15.6572 -36.4651 main 2042 2010 P_____________ AL151967 15.6572 -36.4651 TD 25 -1 13 275
1967263N13341 1967 105 NA NA NOT_NAMED 1967-09-22 18:00:00 TS 15.7000 -37.1000 25 hurdat_atl main 2010 1960 O_____________ hurdat_atl AL151967 15.7000 -37.1000 TD 25 -1 12 274
1967263N13341 1967 105 NA NA NOT_NAMED 1967-09-22 21:00:00 TS 15.7498 -37.7500 main 1952 1910 P_____________ AL151967 15.7498 -37.7500 TD 25 -1 13 275
1967263N13341 1967 105 NA NA NOT_NAMED 1967-09-23 00:00:00 DS 15.8000 -38.4000 25 hurdat_atl main 1910 1862 O_____________ hurdat_atl AL151967 15.8000 -38.4000 LO 25 -3 13 275
1967263N13341 1967 105 NA NA NOT_NAMED 1967-09-23 03:00:00 DS 15.8499 -39.0575 main 1854 1815 P_____________ AL151967 15.8499 -39.0575 LO 25 -3 13 275
1967263N13341 1967 105 NA NA NOT_NAMED 1967-09-23 06:00:00 DS 15.9000 -39.7000 25 hurdat_atl main 1815 1770 O_____________ hurdat_atl AL151967 15.9000 -39.7000 LO 25 -3 12 275
1967263N13341 1967 105 NA NA NOT_NAMED 1967-09-23 09:00:00 DS 15.9498 -40.3075 main 1770 1734 P_____________ AL151967 15.9498 -40.3075 LO 25 -3 12 275
1967263N13341 1967 105 NA NA NOT_NAMED 1967-09-23 12:00:00 DS 16.0000 -40.9000 25 hurdat_atl main 1734 1699 O_____________ hurdat_atl AL151967 16.0000 -40.9000 LO 25 -3 11 275
1967263N13341 1967 105 NA NA NOT_NAMED 1967-09-23 15:00:00 DS 16.0573 -41.4925 main 1701 1660 P_____________ AL151967 16.0573 -41.4925 LO 25 -3 12 275
1967263N13341 1967 105 NA NA NOT_NAMED 1967-09-23 18:00:00 DS 16.1000 -42.1000 25 hurdat_atl main 1660 1621 O_____________ hurdat_atl AL151967 16.1000 -42.1000 LO 25 -3 12 272
1967263N13341 1967 105 NA NA NOT_NAMED 1967-09-23 21:00:00 DS 16.0998 -42.7352 main 1621 1578 P_____________ AL151967 16.0998 -42.7352 LO 25 -3 13 270
1967263N13341 1967 105 NA NA NOT_NAMED 1967-09-24 00:00:00 DS 16.1000 -43.4000 25 hurdat_atl main 1578 1533 O_____________ hurdat_atl AL151967 16.1000 -43.4000 LO 25 -3 13 272
1967263N13341 1967 105 NA NA NOT_NAMED 1967-09-24 03:00:00 DS 16.1423 -44.0925 main 1533 1497 P_____________ AL151967 16.1423 -44.0925 LO 25 -3 13 274
1967263N13341 1967 105 NA NA NOT_NAMED 1967-09-24 06:00:00 DS 16.2000 -44.8000 25 hurdat_atl main 1497 1461 O_____________ hurdat_atl AL151967 16.2000 -44.8000 LO 25 -3 14 275
1967263N13341 1967 105 NA NA NOT_NAMED 1967-09-24 09:00:00 DS 16.2573 -45.5074 main 1464 1425 P_____________ AL151967 16.2573 -45.5074 LO 25 -3 13 274
1967263N13341 1967 105 NA NA NOT_NAMED 1967-09-24 12:00:00 DS 16.3000 -46.2000 25 hurdat_atl main 1425 1395 O_____________ hurdat_atl AL151967 16.3000 -46.2000 LO 25 -3 13 272
1967263N13341 1967 105 NA NA NOT_NAMED 1967-09-24 15:00:00 DS 16.3073 -46.8651 main 1390 1360 P_____________ AL151967 16.3073 -46.8651 LO 25 -3 12 270
1967263N13341 1967 105 NA NA NOT_NAMED 1967-09-24 18:00:00 DS 16.3000 -47.5000 25 hurdat_atl main 1360 1334 O_____________ hurdat_atl AL151967 16.3000 -47.5000 LO 25 -3 12 270
1967263N13341 1967 105 NA NA NOT_NAMED 1967-09-24 21:00:00 DS 16.2997 -48.1000 main 1334 1310 P_____________ AL151967 16.2997 -48.1000 LO 25 -3 12 270
1967263N13341 1967 105 NA NA NOT_NAMED 1967-09-25 00:00:00 TS 16.3000 -48.7000 25 hurdat_atl main 1310 1281 O_____________ hurdat_atl AL151967 16.3000 -48.7000 TD 25 -1 12 270
1967263N13341 1967 105 NA NA NOT_NAMED 1967-09-25 03:00:00 TS 16.2998 -49.3350 main 1281 1251 P_____________ AL151967 16.2998 -49.3350 TD 25 -1 12 270
1967263N13341 1967 105 NA NA NOT_NAMED 1967-09-25 06:00:00 TS 16.3000 -50.0000 25 hurdat_atl main 1251 1225 O_____________ hurdat_atl AL151967 16.3000 -50.0000 TD 25 -1 13 270
1967263N13341 1967 105 NA NA NOT_NAMED 1967-09-25 09:00:00 TS 16.3074 -50.6999 main 1225 1204 P_____________ AL151967 16.3074 -50.6999 TD 25 -1 13 270
1967263N13341 1967 105 NA NA NOT_NAMED 1967-09-25 12:00:00 TS 16.3000 -51.4000 25 1012 hurdat_atl main 1204 1157 O_____________ hurdat_atl AL151967 16.3000 -51.4000 TD 25 1012 -1 13 268
1967263N13341 1967 105 NA NA NOT_NAMED 1967-09-25 15:00:00 TS 16.2647 -52.0500 main 1157 1088 P_____________ AL151967 16.2647 -52.0500 TD 27 -1 13 265
1967263N13341 1967 105 NA NA NOT_NAMED 1967-09-25 18:00:00 TS 16.2000 -52.7000 30 hurdat_atl main 1088 1020 O_____________ hurdat_atl AL151967 16.2000 -52.7000 TD 30 -1 13 263
1967263N13341 1967 105 NA NA NOT_NAMED 1967-09-25 21:00:00 TS 16.1148 -53.3924 main 1020 953 P_____________ AL151967 16.1148 -53.3924 TD 30 -1 14 262
1967263N13341 1967 105 NA NA NOT_NAMED 1967-09-26 00:00:00 TS 16.0000 -54.1000 30 hurdat_atl main 953 888 O_____________ hurdat_atl AL151967 16.0000 -54.1000 TD 30 -1 14 260
1967263N13341 1967 105 NA NA NOT_NAMED 1967-09-26 03:00:00 TS 15.8648 -54.7999 main 888 817 P_____________ AL151967 15.8648 -54.7999 TD 30 -1 14 257
1967263N13341 1967 105 NA NA NOT_NAMED 1967-09-26 06:00:00 TS 15.7000 -55.5000 30 hurdat_atl main 817 747 O_____________ hurdat_atl AL151967 15.7000 -55.5000 TD 30 -1 14 255
1967263N13341 1967 105 NA NA NOT_NAMED 1967-09-26 09:00:00 TS 15.5073 -56.1999 main 747 680 P_____________ AL151967 15.5073 -56.1999 TD 30 -1 14 253
1967263N13341 1967 105 NA NA NOT_NAMED 1967-09-26 12:00:00 TS 15.3000 -56.9000 30 hurdat_atl main 680 615 O_____________ hurdat_atl AL151967 15.3000 -56.9000 TD 30 -1 14 253
1967263N13341 1967 105 NA NA NOT_NAMED 1967-09-26 15:00:00 TS 15.0999 -57.6074 main 615 554 P_____________ AL151967 15.0999 -57.6074 TD 30 -1 14 254
1967263N13341 1967 105 NA NA NOT_NAMED 1967-09-26 18:00:00 TS 14.9000 -58.3000 30 hurdat_atl main 554 502 O_____________ hurdat_atl AL151967 14.9000 -58.3000 TD 30 -1 14 253
1967263N13341 1967 105 NA NA NOT_NAMED 1967-09-26 21:00:00 TS 14.7072 -58.9498 main 502 451 P_____________ AL151967 14.7072 -58.9498 TD 27 -1 13 252
1967263N13341 1967 105 NA NA NOT_NAMED 1967-09-27 00:00:00 TS 14.5000 -59.6000 25 hurdat_atl main 451 412 O_____________ hurdat_atl AL151967 14.5000 -59.6000 TD 25 -1 14 251
1967263N13341 1967 105 NA CS NOT_NAMED 1967-09-27 03:00:00 TS 14.2605 -60.2879 main 410 369 P_____________ AL151967 14.2605 -60.2879 TD 25 -1 14 250
1967263N13341 1967 105 NA CS NOT_NAMED 1967-09-27 06:00:00 TS 14.0000 -61.0000 25 hurdat_atl main 369 O_____________ hurdat_atl AL151967 14.0000 -61.0000 TD 25 -1 15 249

About IBTrACS Database

This database is a web-friendly format of International Best Track Archive for Climate Stewardship (IBTrACS), a global best track data archive curated by NOAA dating back to 1842.

Updated: 2022-11-16